Terminal Aerodrome Forecast
Issued by NWS

Home | Current Version | Previous Version | Text Only | Print | Product List | Glossary On
Versions: 1 2 3 4 5 6 7 8 9 10 11 12 13 14 15 16 17 18 19 20
000
FTPA31 PHFO 151120
TAFHNY
TAF
PHNY 151120Z 1512/1612 04020G28KT P6SM VCSH SCT025 BKN035
     FM152000 04025G34KT P6SM VCSH SCT025 BKN035
     FM160400 03012G20KT 5SM -SHRA VCSH BKN020 OVC035=

USA.gov is the U.S. government's official web portal to all federal, state and local government web resources and services.